sensor_id;sensor_type;location;lat;lon;timestamp;P1;durP1;ratioP1;P2;durP2;ratioP2
31442;SDS011;18065;55.876;9.830;2022-08-02T00:02:20;1.27;;;0.50;;
31442;SDS011;18065;55.876;9.830;2022-08-02T00:04:49;2.25;;;0.60;;
31442;SDS011;18065;55.876;9.830;2022-08-02T00:07:20;1.38;;;0.70;;
31442;SDS011;18065;55.876;9.830;2022-08-02T00:09:49;1.98;;;0.70;;
31442;SDS011;18065;55.876;9.830;2022-08-02T00:12:17;2.35;;;0.73;;
31442;SDS011;18065;55.876;9.830;2022-08-02T00:14:46;1.20;;;0.65;;
31442;SDS011;18065;55.876;9.830;2022-08-02T00:17:15;1.65;;;0.70;;
31442;SDS011;18065;55.876;9.830;2022-08-02T00:19:44;1.55;;;0.60;;
31442;SDS011;18065;55.876;9.830;2022-08-02T00:22:16;2.30;;;0.70;;
31442;SDS011;18065;55.876;9.830;2022-08-02T00:24:44;2.92;;;0.60;;
31442;SDS011;18065;55.876;9.830;2022-08-02T00:27:13;2.58;;;0.70;;
31442;SDS011;18065;55.876;9.830;2022-08-02T00:29:42;1.27;;;0.80;;
31442;SDS011;18065;55.876;9.830;2022-08-02T00:32:11;2.75;;;0.80;;
31442;SDS011;18065;55.876;9.830;2022-08-02T00:34:40;2.80;;;0.57;;
31442;SDS011;18065;55.876;9.830;2022-08-02T00:37:08;1.00;;;0.60;;
31442;SDS011;18065;55.876;9.830;2022-08-02T00:39:40;1.10;;;0.60;;
31442;SDS011;18065;55.876;9.830;2022-08-02T00:42:09;1.55;;;0.70;;
31442;SDS011;18065;55.876;9.830;2022-08-02T00:44:40;2.15;;;0.50;;
31442;SDS011;18065;55.876;9.830;2022-08-02T00:47:09;1.65;;;0.60;;
31442;SDS011;18065;55.876;9.830;2022-08-02T00:49:38;1.80;;;0.65;;
31442;SDS011;18065;55.876;9.830;2022-08-02T00:52:07;1.17;;;0.60;;
31442;SDS011;18065;55.876;9.830;2022-08-02T00:54:36;1.60;;;0.70;;
31442;SDS011;18065;55.876;9.830;2022-08-02T00:57:07;1.38;;;0.40;;
31442;SDS011;18065;55.876;9.830;2022-08-02T00:59:36;1.60;;;0.80;;
31442;SDS011;18065;55.876;9.830;2022-08-02T01:02:06;1.60;;;0.60;;
31442;SDS011;18065;55.876;9.830;2022-08-02T01:04:35;1.40;;;0.60;;
31442;SDS011;18065;55.876;9.830;2022-08-02T01:07:03;0.75;;;0.40;;
31442;SDS011;18065;55.876;9.830;2022-08-02T01:09:32;1.50;;;0.85;;
31442;SDS011;18065;55.876;9.830;2022-08-02T01:12:01;1.45;;;0.50;;
31442;SDS011;18065;55.876;9.830;2022-08-02T01:14:33;1.10;;;0.50;;
31442;SDS011;18065;55.876;9.830;2022-08-02T01:17:08;1.45;;;0.70;;
31442;SDS011;18065;55.876;9.830;2022-08-02T01:19:45;1.40;;;0.70;;
31442;SDS011;18065;55.876;9.830;2022-08-02T01:25:32;0.60;;;0.60;;
31442;SDS011;18065;55.876;9.830;2022-08-02T01:28:25;1.63;;;0.60;;
31442;SDS011;18065;55.876;9.830;2022-08-02T01:31:03;1.95;;;0.68;;
31442;SDS011;18065;55.876;9.830;2022-08-02T01:33:46;1.48;;;0.73;;
31442;SDS011;18065;55.876;9.830;2022-08-02T01:36:23;1.33;;;0.50;;
31442;SDS011;18065;55.876;9.830;2022-08-02T01:38:55;3.63;;;0.70;;
31442;SDS011;18065;55.876;9.830;2022-08-02T01:41:26;2.35;;;0.80;;
31442;SDS011;18065;55.876;9.830;2022-08-02T01:43:58;1.70;;;0.80;;
31442;SDS011;18065;55.876;9.830;2022-08-02T01:46:28;2.90;;;0.50;;
31442;SDS011;18065;55.876;9.830;2022-08-02T01:49:00;1.52;;;0.57;;
31442;SDS011;18065;55.876;9.830;2022-08-02T01:51:32;1.15;;;0.55;;
31442;SDS011;18065;55.876;9.830;2022-08-02T01:54:16;2.22;;;0.65;;
31442;SDS011;18065;55.876;9.830;2022-08-02T01:56:46;1.02;;;0.50;;
31442;SDS011;18065;55.876;9.830;2022-08-02T01:59:20;1.95;;;0.70;;
31442;SDS011;18065;55.876;9.830;2022-08-02T02:01:50;2.78;;;0.95;;
31442;SDS011;18065;55.876;9.830;2022-08-02T02:04:21;0.80;;;0.40;;
31442;SDS011;18065;55.876;9.830;2022-08-02T02:06:50;1.33;;;0.50;;
31442;SDS011;18065;55.876;9.830;2022-08-02T02:09:20;1.48;;;0.52;;
31442;SDS011;18065;55.876;9.830;2022-08-02T02:11:53;2.00;;;0.70;;
31442;SDS011;18065;55.876;9.830;2022-08-02T02:14:26;1.38;;;0.50;;
31442;SDS011;18065;55.876;9.830;2022-08-02T02:16:56;0.73;;;0.52;;
31442;SDS011;18065;55.876;9.830;2022-08-02T02:19:26;1.65;;;0.55;;
31442;SDS011;18065;55.876;9.830;2022-08-02T02:21:56;1.88;;;0.68;;
31442;SDS011;18065;55.876;9.830;2022-08-02T02:24:25;1.30;;;0.55;;
31442;SDS011;18065;55.876;9.830;2022-08-02T02:26:53;2.28;;;0.60;;
31442;SDS011;18065;55.876;9.830;2022-08-02T02:29:23;2.38;;;0.57;;
31442;SDS011;18065;55.876;9.830;2022-08-02T02:31:57;1.27;;;0.75;;
31442;SDS011;18065;55.876;9.830;2022-08-02T02:34:28;1.65;;;0.50;;
31442;SDS011;18065;55.876;9.830;2022-08-02T02:37:00;1.33;;;0.63;;
31442;SDS011;18065;55.876;9.830;2022-08-02T02:39:32;0.88;;;0.60;;
31442;SDS011;18065;55.876;9.830;2022-08-02T02:42:03;1.17;;;0.70;;
31442;SDS011;18065;55.876;9.830;2022-08-02T02:44:38;1.38;;;0.70;;
31442;SDS011;18065;55.876;9.830;2022-08-02T02:47:08;1.15;;;0.80;;
31442;SDS011;18065;55.876;9.830;2022-08-02T02:49:38;1.80;;;0.60;;
31442;SDS011;18065;55.876;9.830;2022-08-02T02:52:09;0.47;;;0.40;;
31442;SDS011;18065;55.876;9.830;2022-08-02T02:54:40;2.53;;;0.68;;
31442;SDS011;18065;55.876;9.830;2022-08-02T02:57:09;1.70;;;0.60;;
31442;SDS011;18065;55.876;9.830;2022-08-02T02:59:42;1.58;;;0.65;;
31442;SDS011;18065;55.876;9.830;2022-08-02T03:02:11;1.67;;;0.70;;
31442;SDS011;18065;55.876;9.830;2022-08-02T03:04:40;1.23;;;0.60;;
31442;SDS011;18065;55.876;9.830;2022-08-02T03:07:10;2.88;;;0.90;;
31442;SDS011;18065;55.876;9.830;2022-08-02T03:09:39;1.63;;;0.68;;
31442;SDS011;18065;55.876;9.830;2022-08-02T03:12:08;2.03;;;0.75;;
31442;SDS011;18065;55.876;9.830;2022-08-02T03:14:42;3.42;;;0.68;;
31442;SDS011;18065;55.876;9.830;2022-08-02T03:17:11;1.13;;;0.70;;
31442;SDS011;18065;55.876;9.830;2022-08-02T03:19:40;2.20;;;0.40;;
31442;SDS011;18065;55.876;9.830;2022-08-02T03:22:09;1.27;;;0.80;;
31442;SDS011;18065;55.876;9.830;2022-08-02T03:24:38;1.42;;;0.90;;
31442;SDS011;18065;55.876;9.830;2022-08-02T03:27:07;2.75;;;0.80;;
31442;SDS011;18065;55.876;9.830;2022-08-02T03:29:37;1.30;;;0.70;;
31442;SDS011;18065;55.876;9.830;2022-08-02T03:32:08;1.27;;;0.70;;
31442;SDS011;18065;55.876;9.830;2022-08-02T03:34:37;1.63;;;0.70;;
31442;SDS011;18065;55.876;9.830;2022-08-02T03:37:05;1.20;;;0.63;;
31442;SDS011;18065;55.876;9.830;2022-08-02T03:39:35;1.35;;;0.60;;
31442;SDS011;18065;55.876;9.830;2022-08-02T03:42:05;0.80;;;0.47;;
31442;SDS011;18065;55.876;9.830;2022-08-02T03:44:34;1.67;;;0.68;;
31442;SDS011;18065;55.876;9.830;2022-08-02T03:47:04;0.82;;;0.50;;
31442;SDS011;18065;55.876;9.830;2022-08-02T03:49:36;1.50;;;0.70;;
31442;SDS011;18065;55.876;9.830;2022-08-02T03:52:06;1.10;;;0.60;;
31442;SDS011;18065;55.876;9.830;2022-08-02T03:54:36;1.10;;;0.55;;
31442;SDS011;18065;55.876;9.830;2022-08-02T03:57:04;1.20;;;0.70;;
31442;SDS011;18065;55.876;9.830;2022-08-02T03:59:38;0.85;;;0.60;;
31442;SDS011;18065;55.876;9.830;2022-08-02T04:02:09;1.75;;;0.63;;
31442;SDS011;18065;55.876;9.830;2022-08-02T04:04:41;1.05;;;0.55;;
31442;SDS011;18065;55.876;9.830;2022-08-02T04:07:10;1.02;;;0.55;;
31442;SDS011;18065;55.876;9.830;2022-08-02T04:09:39;1.45;;;0.77;;
31442;SDS011;18065;55.876;9.830;2022-08-02T04:12:08;2.58;;;0.73;;
31442;SDS011;18065;55.876;9.830;2022-08-02T04:14:37;1.55;;;0.68;;
31442;SDS011;18065;55.876;9.830;2022-08-02T04:17:06;1.77;;;0.90;;
31442;SDS011;18065;55.876;9.830;2022-08-02T04:19:37;1.35;;;0.63;;
31442;SDS011;18065;55.876;9.830;2022-08-02T04:22:13;1.83;;;0.90;;
31442;SDS011;18065;55.876;9.830;2022-08-02T04:24:44;1.85;;;0.77;;
31442;SDS011;18065;55.876;9.830;2022-08-02T04:27:16;1.47;;;0.80;;
31442;SDS011;18065;55.876;9.830;2022-08-02T04:29:47;2.22;;;0.80;;
31442;SDS011;18065;55.876;9.830;2022-08-02T04:32:17;1.77;;;0.60;;
31442;SDS011;18065;55.876;9.830;2022-08-02T04:34:46;2.35;;;0.70;;
31442;SDS011;18065;55.876;9.830;2022-08-02T04:37:18;1.88;;;0.70;;
31442;SDS011;18065;55.876;9.830;2022-08-02T04:39:47;1.48;;;0.52;;
31442;SDS011;18065;55.876;9.830;2022-08-02T04:42:19;1.00;;;0.60;;
31442;SDS011;18065;55.876;9.830;2022-08-02T04:44:48;1.48;;;0.90;;
31442;SDS011;18065;55.876;9.830;2022-08-02T04:47:17;0.90;;;0.50;;
31442;SDS011;18065;55.876;9.830;2022-08-02T04:49:46;0.90;;;0.70;;
31442;SDS011;18065;55.876;9.830;2022-08-02T04:52:17;1.98;;;0.70;;
31442;SDS011;18065;55.876;9.830;2022-08-02T04:54:46;1.17;;;0.70;;
31442;SDS011;18065;55.876;9.830;2022-08-02T04:57:15;1.20;;;0.80;;
31442;SDS011;18065;55.876;9.830;2022-08-02T05:00:02;2.08;;;0.80;;
31442;SDS011;18065;55.876;9.830;2022-08-02T05:02:32;1.80;;;0.80;;
31442;SDS011;18065;55.876;9.830;2022-08-02T05:05:01;0.90;;;0.75;;
31442;SDS011;18065;55.876;9.830;2022-08-02T05:07:33;1.58;;;0.77;;
31442;SDS011;18065;55.876;9.830;2022-08-02T05:10:02;0.93;;;0.65;;
31442;SDS011;18065;55.876;9.830;2022-08-02T05:12:31;1.85;;;0.73;;
31442;SDS011;18065;55.876;9.830;2022-08-02T05:15:00;1.20;;;0.60;;
31442;SDS011;18065;55.876;9.830;2022-08-02T05:17:30;0.90;;;0.55;;
31442;SDS011;18065;55.876;9.830;2022-08-02T05:20:01;1.38;;;0.70;;
31442;SDS011;18065;55.876;9.830;2022-08-02T05:22:33;1.30;;;0.57;;
31442;SDS011;18065;55.876;9.830;2022-08-02T05:25:01;4.82;;;1.02;;
31442;SDS011;18065;55.876;9.830;2022-08-02T05:27:30;3.38;;;0.80;;
31442;SDS011;18065;55.876;9.830;2022-08-02T05:30:00;1.45;;;0.80;;
31442;SDS011;18065;55.876;9.830;2022-08-02T05:32:30;4.35;;;0.80;;
31442;SDS011;18065;55.876;9.830;2022-08-02T05:34:59;3.38;;;0.88;;
31442;SDS011;18065;55.876;9.830;2022-08-02T05:37:28;1.50;;;0.75;;
31442;SDS011;18065;55.876;9.830;2022-08-02T05:39:59;1.02;;;0.70;;
31442;SDS011;18065;55.876;9.830;2022-08-02T05:42:30;2.45;;;0.68;;
31442;SDS011;18065;55.876;9.830;2022-08-02T05:45:00;3.95;;;1.13;;
31442;SDS011;18065;55.876;9.830;2022-08-02T05:47:28;3.83;;;0.90;;
31442;SDS011;18065;55.876;9.830;2022-08-02T05:49:57;3.80;;;0.90;;
31442;SDS011;18065;55.876;9.830;2022-08-02T05:52:29;1.33;;;0.85;;
31442;SDS011;18065;55.876;9.830;2022-08-02T05:55:14;3.00;;;0.80;;
31442;SDS011;18065;55.876;9.830;2022-08-02T05:57:57;2.47;;;0.80;;
31442;SDS011;18065;55.876;9.830;2022-08-02T06:00:33;2.25;;;0.73;;
31442;SDS011;18065;55.876;9.830;2022-08-02T06:03:03;3.83;;;0.70;;
31442;SDS011;18065;55.876;9.830;2022-08-02T06:05:42;3.75;;;1.10;;
31442;SDS011;18065;55.876;9.830;2022-08-02T06:08:18;2.25;;;0.80;;
31442;SDS011;18065;55.876;9.830;2022-08-02T06:10:51;3.30;;;1.10;;
31442;SDS011;18065;55.876;9.830;2022-08-02T06:13:23;2.28;;;0.73;;
31442;SDS011;18065;55.876;9.830;2022-08-02T06:15:53;2.47;;;0.90;;
31442;SDS011;18065;55.876;9.830;2022-08-02T06:18:24;1.88;;;0.90;;
31442;SDS011;18065;55.876;9.830;2022-08-02T06:20:55;3.78;;;1.00;;
31442;SDS011;18065;55.876;9.830;2022-08-02T06:23:25;1.73;;;0.70;;
31442;SDS011;18065;55.876;9.830;2022-08-02T06:25:58;1.50;;;0.88;;
31442;SDS011;18065;55.876;9.830;2022-08-02T06:28:27;4.38;;;0.88;;
31442;SDS011;18065;55.876;9.830;2022-08-02T06:30:57;1.13;;;0.70;;
31442;SDS011;18065;55.876;9.830;2022-08-02T06:33:26;2.30;;;0.90;;
31442;SDS011;18065;55.876;9.830;2022-08-02T06:35:57;4.05;;;1.02;;
31442;SDS011;18065;55.876;9.830;2022-08-02T06:38:32;2.85;;;0.90;;
31442;SDS011;18065;55.876;9.830;2022-08-02T06:41:10;1.15;;;0.80;;
31442;SDS011;18065;55.876;9.830;2022-08-02T06:43:43;1.98;;;0.90;;
31442;SDS011;18065;55.876;9.830;2022-08-02T06:46:19;2.28;;;0.90;;
31442;SDS011;18065;55.876;9.830;2022-08-02T06:48:47;2.60;;;0.98;;
31442;SDS011;18065;55.876;9.830;2022-08-02T06:51:16;1.40;;;0.80;;
31442;SDS011;18065;55.876;9.830;2022-08-02T06:53:45;2.92;;;0.90;;
31442;SDS011;18065;55.876;9.830;2022-08-02T06:56:17;3.38;;;0.85;;
31442;SDS011;18065;55.876;9.830;2022-08-02T06:58:45;2.30;;;0.80;;
31442;SDS011;18065;55.876;9.830;2022-08-02T07:01:14;3.08;;;0.88;;
31442;SDS011;18065;55.876;9.830;2022-08-02T07:03:45;4.38;;;1.00;;
31442;SDS011;18065;55.876;9.830;2022-08-02T07:06:14;2.25;;;0.90;;
31442;SDS011;18065;55.876;9.830;2022-08-02T07:08:43;4.95;;;0.88;;
31442;SDS011;18065;55.876;9.830;2022-08-02T07:11:11;3.13;;;1.00;;
31442;SDS011;18065;55.876;9.830;2022-08-02T07:13:43;2.60;;;0.80;;
31442;SDS011;18065;55.876;9.830;2022-08-02T07:16:12;3.30;;;0.95;;
31442;SDS011;18065;55.876;9.830;2022-08-02T07:18:40;2.78;;;0.93;;
31442;SDS011;18065;55.876;9.830;2022-08-02T07:21:09;3.80;;;1.10;;
31442;SDS011;18065;55.876;9.830;2022-08-02T07:23:38;3.20;;;1.23;;
31442;SDS011;18065;55.876;9.830;2022-08-02T07:26:06;3.80;;;1.05;;
31442;SDS011;18065;55.876;9.830;2022-08-02T07:28:35;2.50;;;0.80;;
31442;SDS011;18065;55.876;9.830;2022-08-02T07:31:06;2.67;;;0.93;;
31442;SDS011;18065;55.876;9.830;2022-08-02T07:33:35;2.10;;;1.00;;
31442;SDS011;18065;55.876;9.830;2022-08-02T07:36:04;3.25;;;1.00;;
31442;SDS011;18065;55.876;9.830;2022-08-02T07:38:33;2.28;;;0.95;;
31442;SDS011;18065;55.876;9.830;2022-08-02T07:41:02;3.05;;;0.82;;
31442;SDS011;18065;55.876;9.830;2022-08-02T07:43:30;1.58;;;0.90;;
31442;SDS011;18065;55.876;9.830;2022-08-02T07:45:59;3.03;;;0.80;;
31442;SDS011;18065;55.876;9.830;2022-08-02T07:48:30;2.95;;;0.77;;
31442;SDS011;18065;55.876;9.830;2022-08-02T07:50:59;4.03;;;0.90;;
31442;SDS011;18065;55.876;9.830;2022-08-02T07:53:28;1.83;;;0.90;;
31442;SDS011;18065;55.876;9.830;2022-08-02T07:55:56;2.42;;;0.80;;
31442;SDS011;18065;55.876;9.830;2022-08-02T07:58:25;3.97;;;1.00;;
31442;SDS011;18065;55.876;9.830;2022-08-02T08:00:54;1.75;;;0.70;;
31442;SDS011;18065;55.876;9.830;2022-08-02T08:03:23;3.08;;;0.80;;
31442;SDS011;18065;55.876;9.830;2022-08-02T08:05:54;2.90;;;1.13;;
31442;SDS011;18065;55.876;9.830;2022-08-02T08:08:23;3.40;;;1.00;;
31442;SDS011;18065;55.876;9.830;2022-08-02T08:10:51;2.85;;;0.95;;
31442;SDS011;18065;55.876;9.830;2022-08-02T08:13:20;1.88;;;0.80;;
31442;SDS011;18065;55.876;9.830;2022-08-02T08:15:49;2.85;;;0.90;;
31442;SDS011;18065;55.876;9.830;2022-08-02T08:18:18;2.63;;;0.95;;
31442;SDS011;18065;55.876;9.830;2022-08-02T08:20:47;2.22;;;0.80;;
31442;SDS011;18065;55.876;9.830;2022-08-02T08:23:18;1.85;;;0.70;;
31442;SDS011;18065;55.876;9.830;2022-08-02T08:25:47;2.20;;;0.68;;
31442;SDS011;18065;55.876;9.830;2022-08-02T08:28:16;1.55;;;0.60;;
31442;SDS011;18065;55.876;9.830;2022-08-02T08:30:44;2.97;;;0.77;;
31442;SDS011;18065;55.876;9.830;2022-08-02T08:33:14;3.15;;;0.80;;
31442;SDS011;18065;55.876;9.830;2022-08-02T08:35:43;2.83;;;0.80;;
31442;SDS011;18065;55.876;9.830;2022-08-02T08:38:11;1.42;;;0.60;;
31442;SDS011;18065;55.876;9.830;2022-08-02T08:40:43;1.50;;;0.80;;
31442;SDS011;18065;55.876;9.830;2022-08-02T08:43:12;2.75;;;0.80;;
31442;SDS011;18065;55.876;9.830;2022-08-02T08:45:42;4.22;;;0.82;;
31442;SDS011;18065;55.876;9.830;2022-08-02T08:48:11;2.15;;;0.70;;
31442;SDS011;18065;55.876;9.830;2022-08-02T08:50:43;1.65;;;0.57;;
31442;SDS011;18065;55.876;9.830;2022-08-02T08:53:16;2.78;;;0.90;;
31442;SDS011;18065;55.876;9.830;2022-08-02T08:55:50;2.15;;;0.85;;
31442;SDS011;18065;55.876;9.830;2022-08-02T08:58:22;1.80;;;0.70;;
31442;SDS011;18065;55.876;9.830;2022-08-02T09:00:52;2.33;;;0.80;;
31442;SDS011;18065;55.876;9.830;2022-08-02T09:03:20;1.60;;;0.70;;
31442;SDS011;18065;55.876;9.830;2022-08-02T09:05:49;2.05;;;0.70;;
31442;SDS011;18065;55.876;9.830;2022-08-02T09:08:18;1.70;;;0.50;;
31442;SDS011;18065;55.876;9.830;2022-08-02T09:10:49;2.00;;;0.60;;
31442;SDS011;18065;55.876;9.830;2022-08-02T09:13:20;1.52;;;0.60;;
31442;SDS011;18065;55.876;9.830;2022-08-02T09:15:54;1.25;;;0.70;;
31442;SDS011;18065;55.876;9.830;2022-08-02T09:18:30;3.35;;;0.70;;
31442;SDS011;18065;55.876;9.830;2022-08-02T09:21:00;2.33;;;0.70;;
31442;SDS011;18065;55.876;9.830;2022-08-02T09:23:33;1.98;;;0.70;;
31442;SDS011;18065;55.876;9.830;2022-08-02T09:26:06;4.47;;;0.85;;
31442;SDS011;18065;55.876;9.830;2022-08-02T09:28:36;3.42;;;0.82;;
31442;SDS011;18065;55.876;9.830;2022-08-02T09:31:07;2.63;;;0.90;;
31442;SDS011;18065;55.876;9.830;2022-08-02T09:33:37;3.45;;;0.80;;
31442;SDS011;18065;55.876;9.830;2022-08-02T09:36:08;1.48;;;0.57;;
31442;SDS011;18065;55.876;9.830;2022-08-02T09:38:39;1.70;;;0.70;;
31442;SDS011;18065;55.876;9.830;2022-08-02T09:41:21;2.03;;;0.60;;
31442;SDS011;18065;55.876;9.830;2022-08-02T09:43:51;1.50;;;0.70;;
31442;SDS011;18065;55.876;9.830;2022-08-02T09:46:22;3.72;;;0.57;;
31442;SDS011;18065;55.876;9.830;2022-08-02T09:48:52;4.40;;;0.82;;
31442;SDS011;18065;55.876;9.830;2022-08-02T09:51:23;2.03;;;0.70;;
31442;SDS011;18065;55.876;9.830;2022-08-02T09:53:53;3.03;;;0.68;;
31442;SDS011;18065;55.876;9.830;2022-08-02T09:56:26;1.40;;;0.68;;
31442;SDS011;18065;55.876;9.830;2022-08-02T09:59:06;3.58;;;0.80;;
31442;SDS011;18065;55.876;9.830;2022-08-02T10:01:35;1.38;;;0.63;;
31442;SDS011;18065;55.876;9.830;2022-08-02T10:04:05;1.25;;;0.52;;
31442;SDS011;18065;55.876;9.830;2022-08-02T10:06:36;1.05;;;0.55;;
31442;SDS011;18065;55.876;9.830;2022-08-02T10:09:06;1.92;;;0.50;;
31442;SDS011;18065;55.876;9.830;2022-08-02T10:11:38;2.00;;;0.70;;
31442;SDS011;18065;55.876;9.830;2022-08-02T10:14:07;1.90;;;0.63;;
31442;SDS011;18065;55.876;9.830;2022-08-02T10:16:38;2.38;;;0.70;;
31442;SDS011;18065;55.876;9.830;2022-08-02T10:19:08;2.60;;;0.68;;
31442;SDS011;18065;55.876;9.830;2022-08-02T10:21:39;2.42;;;0.88;;
31442;SDS011;18065;55.876;9.830;2022-08-02T10:24:13;2.20;;;0.80;;
31442;SDS011;18065;55.876;9.830;2022-08-02T10:26:46;2.22;;;0.90;;
31442;SDS011;18065;55.876;9.830;2022-08-02T10:29:16;2.42;;;0.52;;
31442;SDS011;18065;55.876;9.830;2022-08-02T10:31:46;1.77;;;0.60;;
31442;SDS011;18065;55.876;9.830;2022-08-02T10:34:20;2.05;;;0.68;;
31442;SDS011;18065;55.876;9.830;2022-08-02T10:36:53;2.72;;;0.80;;
31442;SDS011;18065;55.876;9.830;2022-08-02T10:39:24;3.35;;;0.73;;
31442;SDS011;18065;55.876;9.830;2022-08-02T10:41:56;1.45;;;0.70;;
31442;SDS011;18065;55.876;9.830;2022-08-02T10:44:25;4.35;;;0.70;;
31442;SDS011;18065;55.876;9.830;2022-08-02T10:49:52;2.40;;;0.80;;
31442;SDS011;18065;55.876;9.830;2022-08-02T10:52:22;2.92;;;0.43;;
31442;SDS011;18065;55.876;9.830;2022-08-02T10:54:55;2.65;;;0.63;;
31442;SDS011;18065;55.876;9.830;2022-08-02T10:59:57;2.05;;;0.70;;
31442;SDS011;18065;55.876;9.830;2022-08-02T11:02:32;2.53;;;0.60;;
31442;SDS011;18065;55.876;9.830;2022-08-02T11:05:12;0.95;;;0.55;;
31442;SDS011;18065;55.876;9.830;2022-08-02T11:07:43;1.85;;;0.75;;
31442;SDS011;18065;55.876;9.830;2022-08-02T11:13:02;1.75;;;0.80;;
31442;SDS011;18065;55.876;9.830;2022-08-02T11:15:49;4.18;;;0.60;;
31442;SDS011;18065;55.876;9.830;2022-08-02T11:23:47;1.33;;;0.50;;
31442;SDS011;18065;55.876;9.830;2022-08-02T11:29:13;3.00;;;1.10;;
31442;SDS011;18065;55.876;9.830;2022-08-02T11:31:42;3.03;;;0.90;;
31442;SDS011;18065;55.876;9.830;2022-08-02T11:34:12;4.20;;;0.85;;
31442;SDS011;18065;55.876;9.830;2022-08-02T11:36:44;2.35;;;0.80;;
31442;SDS011;18065;55.876;9.830;2022-08-02T11:39:14;3.45;;;1.08;;
31442;SDS011;18065;55.876;9.830;2022-08-02T11:41:47;5.22;;;1.30;;
31442;SDS011;18065;55.876;9.830;2022-08-02T11:44:20;3.55;;;1.27;;
31442;SDS011;18065;55.876;9.830;2022-08-02T11:46:54;3.88;;;1.45;;
31442;SDS011;18065;55.876;9.830;2022-08-02T11:51:53;4.63;;;1.25;;
31442;SDS011;18065;55.876;9.830;2022-08-02T11:54:26;4.55;;;1.48;;
31442;SDS011;18065;55.876;9.830;2022-08-02T11:59:46;3.30;;;1.40;;
31442;SDS011;18065;55.876;9.830;2022-08-02T12:02:16;3.03;;;1.15;;
31442;SDS011;18065;55.876;9.830;2022-08-02T12:04:53;3.08;;;1.00;;
31442;SDS011;18065;55.876;9.830;2022-08-02T12:07:26;3.30;;;1.00;;
31442;SDS011;18065;55.876;9.830;2022-08-02T12:09:58;2.03;;;0.80;;
31442;SDS011;18065;55.876;9.830;2022-08-02T12:12:27;3.90;;;1.08;;
31442;SDS011;18065;55.876;9.830;2022-08-02T12:14:59;3.65;;;1.13;;
31442;SDS011;18065;55.876;9.830;2022-08-02T12:17:27;2.83;;;1.30;;
31442;SDS011;18065;55.876;9.830;2022-08-02T12:20:09;3.38;;;0.90;;
31442;SDS011;18065;55.876;9.830;2022-08-02T12:22:38;3.20;;;1.10;;
31442;SDS011;18065;55.876;9.830;2022-08-02T12:25:14;3.33;;;1.10;;
31442;SDS011;18065;55.876;9.830;2022-08-02T12:27:46;2.97;;;1.10;;
31442;SDS011;18065;55.876;9.830;2022-08-02T12:30:18;4.13;;;1.30;;
31442;SDS011;18065;55.876;9.830;2022-08-02T12:32:46;2.67;;;1.00;;
31442;SDS011;18065;55.876;9.830;2022-08-02T12:35:16;2.28;;;0.90;;
31442;SDS011;18065;55.876;9.830;2022-08-02T12:37:48;2.08;;;0.90;;
31442;SDS011;18065;55.876;9.830;2022-08-02T12:40:20;3.78;;;1.15;;
31442;SDS011;18065;55.876;9.830;2022-08-02T12:42:54;2.53;;;0.85;;
31442;SDS011;18065;55.876;9.830;2022-08-02T12:45:28;2.55;;;0.90;;
31442;SDS011;18065;55.876;9.830;2022-08-02T12:48:00;2.83;;;0.95;;
31442;SDS011;18065;55.876;9.830;2022-08-02T12:50:29;1.90;;;0.73;;
31442;SDS011;18065;55.876;9.830;2022-08-02T12:53:02;3.70;;;1.10;;
31442;SDS011;18065;55.876;9.830;2022-08-02T12:55:32;2.67;;;0.98;;
31442;SDS011;18065;55.876;9.830;2022-08-02T12:58:05;1.85;;;1.00;;
31442;SDS011;18065;55.876;9.830;2022-08-02T13:00:37;4.07;;;1.10;;
31442;SDS011;18065;55.876;9.830;2022-08-02T13:03:06;3.25;;;1.02;;
31442;SDS011;18065;55.876;9.830;2022-08-02T13:05:35;2.72;;;1.10;;
31442;SDS011;18065;55.876;9.830;2022-08-02T13:08:04;2.78;;;0.90;;
31442;SDS011;18065;55.876;9.830;2022-08-02T13:10:33;3.13;;;1.13;;
31442;SDS011;18065;55.876;9.830;2022-08-02T13:13:02;2.17;;;0.90;;
31442;SDS011;18065;55.876;9.830;2022-08-02T13:15:30;6.03;;;1.00;;
31442;SDS011;18065;55.876;9.830;2022-08-02T13:18:02;3.60;;;1.17;;
31442;SDS011;18065;55.876;9.830;2022-08-02T13:20:31;2.20;;;1.10;;
31442;SDS011;18065;55.876;9.830;2022-08-02T13:22:59;6.03;;;1.00;;
31442;SDS011;18065;55.876;9.830;2022-08-02T13:25:28;5.75;;;1.08;;
31442;SDS011;18065;55.876;9.830;2022-08-02T13:27:57;1.92;;;0.73;;
31442;SDS011;18065;55.876;9.830;2022-08-02T13:30:26;2.55;;;0.80;;
31442;SDS011;18065;55.876;9.830;2022-08-02T13:32:54;3.78;;;0.95;;
31442;SDS011;18065;55.876;9.830;2022-08-02T13:35:26;3.33;;;0.70;;
31442;SDS011;18065;55.876;9.830;2022-08-02T13:37:55;2.83;;;1.20;;
31442;SDS011;18065;55.876;9.830;2022-08-02T13:40:24;3.38;;;0.88;;
31442;SDS011;18065;55.876;9.830;2022-08-02T13:42:52;3.08;;;1.08;;
31442;SDS011;18065;55.876;9.830;2022-08-02T13:45:21;3.85;;;1.00;;
31442;SDS011;18065;55.876;9.830;2022-08-02T13:47:50;3.65;;;1.08;;
31442;SDS011;18065;55.876;9.830;2022-08-02T13:50:19;3.63;;;1.00;;
31442;SDS011;18065;55.876;9.830;2022-08-02T13:52:50;2.40;;;0.85;;
31442;SDS011;18065;55.876;9.830;2022-08-02T13:55:19;3.50;;;1.10;;
31442;SDS011;18065;55.876;9.830;2022-08-02T13:57:48;5.85;;;1.40;;
31442;SDS011;18065;55.876;9.830;2022-08-02T14:00:17;5.22;;;1.30;;
31442;SDS011;18065;55.876;9.830;2022-08-02T14:02:45;4.28;;;1.15;;
31442;SDS011;18065;55.876;9.830;2022-08-02T14:05:14;2.20;;;1.00;;
31442;SDS011;18065;55.876;9.830;2022-08-02T14:07:43;4.47;;;0.98;;
31442;SDS011;18065;55.876;9.830;2022-08-02T14:10:14;3.83;;;1.40;;
31442;SDS011;18065;55.876;9.830;2022-08-02T14:12:43;4.35;;;1.55;;
31442;SDS011;18065;55.876;9.830;2022-08-02T14:15:12;3.03;;;1.00;;
31442;SDS011;18065;55.876;9.830;2022-08-02T14:17:40;3.85;;;1.15;;
31442;SDS011;18065;55.876;9.830;2022-08-02T14:20:10;3.28;;;0.98;;
31442;SDS011;18065;55.876;9.830;2022-08-02T14:22:39;6.05;;;1.17;;
31442;SDS011;18065;55.876;9.830;2022-08-02T14:25:08;3.25;;;1.10;;
31442;SDS011;18065;55.876;9.830;2022-08-02T14:27:40;4.13;;;0.90;;
31442;SDS011;18065;55.876;9.830;2022-08-02T14:30:09;3.55;;;0.90;;
31442;SDS011;18065;55.876;9.830;2022-08-02T14:32:38;2.58;;;0.93;;
31442;SDS011;18065;55.876;9.830;2022-08-02T14:35:07;3.17;;;1.05;;
31442;SDS011;18065;55.876;9.830;2022-08-02T14:37:36;2.75;;;0.88;;
31442;SDS011;18065;55.876;9.830;2022-08-02T14:40:05;2.63;;;1.20;;
31442;SDS011;18065;55.876;9.830;2022-08-02T14:42:35;2.38;;;0.90;;
31442;SDS011;18065;55.876;9.830;2022-08-02T14:45:07;3.45;;;0.98;;
31442;SDS011;18065;55.876;9.830;2022-08-02T14:47:36;6.55;;;1.38;;
31442;SDS011;18065;55.876;9.830;2022-08-02T14:50:06;3.97;;;1.27;;
31442;SDS011;18065;55.876;9.830;2022-08-02T14:52:35;2.72;;;0.80;;
31442;SDS011;18065;55.876;9.830;2022-08-02T14:55:04;3.10;;;1.20;;
31442;SDS011;18065;55.876;9.830;2022-08-02T14:57:33;6.78;;;1.17;;
31442;SDS011;18065;55.876;9.830;2022-08-02T15:00:03;2.80;;;1.05;;
31442;SDS011;18065;55.876;9.830;2022-08-02T15:02:36;2.40;;;1.10;;
31442;SDS011;18065;55.876;9.830;2022-08-02T15:05:05;2.17;;;0.88;;
31442;SDS011;18065;55.876;9.830;2022-08-02T15:07:34;3.20;;;1.10;;
31442;SDS011;18065;55.876;9.830;2022-08-02T15:10:03;2.88;;;0.90;;
31442;SDS011;18065;55.876;9.830;2022-08-02T15:12:33;2.95;;;1.08;;
31442;SDS011;18065;55.876;9.830;2022-08-02T15:15:01;5.40;;;1.13;;
31442;SDS011;18065;55.876;9.830;2022-08-02T15:17:30;2.53;;;0.90;;
31442;SDS011;18065;55.876;9.830;2022-08-02T15:20:02;3.15;;;1.20;;
31442;SDS011;18065;55.876;9.830;2022-08-02T15:22:31;3.90;;;0.80;;
31442;SDS011;18065;55.876;9.830;2022-08-02T15:25:00;3.58;;;1.10;;
31442;SDS011;18065;55.876;9.830;2022-08-02T15:27:29;4.40;;;1.10;;
31442;SDS011;18065;55.876;9.830;2022-08-02T15:29:57;2.40;;;1.15;;
31442;SDS011;18065;55.876;9.830;2022-08-02T15:32:26;6.22;;;0.93;;
31442;SDS011;18065;55.876;9.830;2022-08-02T15:34:55;4.72;;;1.10;;